createdAt,value
2017-09-02T00:00:28.461Z,1018.74
2017-09-02T00:01:30.354Z,1018.74
2017-09-02T00:02:32.237Z,1018.73
2017-09-02T00:03:46.392Z,1018.70
2017-09-02T00:04:48.273Z,1018.69
2017-09-02T00:05:50.152Z,1018.70
2017-09-02T00:06:52.031Z,1018.70
2017-09-02T00:07:53.851Z,1018.68
2017-09-02T00:08:55.667Z,1018.66
2017-09-02T00:09:57.550Z,1018.69
2017-09-02T00:10:59.434Z,1018.71
2017-09-02T00:12:01.314Z,1018.77
2017-09-02T00:13:15.467Z,1018.80
2017-09-02T00:14:17.345Z,1018.78
2017-09-02T00:15:19.227Z,1018.83
2017-09-02T00:16:21.108Z,1018.84
2017-09-02T00:17:22.929Z,1018.81
2017-09-02T00:18:24.744Z,1018.84
2017-09-02T00:19:26.626Z,1018.86
2017-09-02T00:20:28.506Z,1018.80
2017-09-02T00:21:30.385Z,1018.81
2017-09-02T00:22:44.549Z,1018.78
2017-09-02T00:23:46.438Z,1018.83
2017-09-02T00:24:48.327Z,1018.83
2017-09-02T00:25:50.208Z,1018.84
2017-09-02T00:26:52.036Z,1018.87
2017-09-02T00:27:53.864Z,1018.87
2017-09-02T00:28:55.745Z,1018.88
2017-09-02T00:29:57.631Z,1018.88
2017-09-02T00:30:59.512Z,1018.85
2017-09-02T00:32:13.667Z,1018.84
2017-09-02T00:33:15.544Z,1018.80
2017-09-02T00:34:17.436Z,1018.79
2017-09-02T00:35:19.317Z,1018.76
2017-09-02T00:36:21.135Z,1018.75
2017-09-02T00:37:22.953Z,1018.75
2017-09-02T00:38:24.836Z,1018.75
2017-09-02T00:39:26.721Z,1018.75
2017-09-02T00:40:28.604Z,1018.75
2017-09-02T00:41:42.761Z,1018.76
2017-09-02T00:42:44.640Z,1018.77
2017-09-02T00:43:46.521Z,1018.73
2017-09-02T00:44:48.402Z,1018.75
2017-09-02T00:45:50.220Z,1018.74
2017-09-02T00:46:52.037Z,1018.73
2017-09-02T00:47:53.923Z,1018.67
2017-09-02T00:48:55.802Z,1018.71
2017-09-02T00:49:57.684Z,1018.70
2017-09-02T00:51:11.838Z,1018.67
2017-09-02T00:52:13.738Z,1018.65
2017-09-02T00:53:15.598Z,1018.61
2017-09-02T00:54:17.476Z,1018.60
2017-09-02T00:55:19.296Z,1018.57
2017-09-02T00:56:21.114Z,1018.60
2017-09-02T00:57:22.997Z,1018.55
2017-09-02T00:58:24.879Z,1018.58
2017-09-02T00:59:26.756Z,1018.56
2017-09-02T01:00:40.970Z,1018.58
2017-09-02T01:01:42.850Z,1018.60
2017-09-02T01:02:44.731Z,1018.62
2017-09-02T01:03:46.625Z,1018.62
2017-09-02T01:04:48.443Z,1018.61
2017-09-02T01:05:50.262Z,1018.64
2017-09-02T01:06:52.142Z,1018.59
2017-09-02T01:07:54.023Z,1018.55
2017-09-02T01:08:55.906Z,1018.55
2017-09-02T01:10:10.060Z,1018.57
2017-09-02T01:11:11.939Z,1018.61
2017-09-02T01:12:13.819Z,1018.61
2017-09-02T01:13:15.710Z,1018.63
2017-09-02T01:14:17.529Z,1018.62
2017-09-02T01:15:19.346Z,1018.64
2017-09-02T01:16:21.232Z,1018.68
2017-09-02T01:17:23.116Z,1018.69
2017-09-02T01:18:24.997Z,1018.75
2017-09-02T01:19:39.150Z,1018.78
2017-09-02T01:20:41.027Z,1018.83
2017-09-02T01:21:42.920Z,1018.85
2017-09-02T01:22:44.801Z,1018.87
2017-09-02T01:23:46.620Z,1018.93
2017-09-02T01:24:48.435Z,1018.96
2017-09-02T01:25:50.324Z,1019.01
2017-09-02T01:26:52.205Z,1019.00
2017-09-02T01:27:54.086Z,1019.05
2017-09-02T01:29:08.239Z,1019.05
2017-09-02T01:30:10.123Z,1019.05
2017-09-02T01:31:12.007Z,1019.06
2017-09-02T01:32:13.908Z,1019.10
2017-09-02T01:33:15.758Z,1019.08
2017-09-02T01:34:17.579Z,1019.08
2017-09-02T01:35:19.456Z,1019.04
2017-09-02T01:36:21.334Z,1019.00
2017-09-02T01:37:23.216Z,1018.99
2017-09-02T01:38:37.369Z,1018.93
2017-09-02T01:39:39.250Z,1018.90
2017-09-02T01:40:41.137Z,1018.92
2017-09-02T01:41:43.018Z,1018.87
2017-09-02T01:42:44.837Z,1018.88
2017-09-02T01:43:46.662Z,1018.88
2017-09-02T01:44:48.548Z,1018.89
2017-09-02T01:45:50.428Z,1018.95
2017-09-02T01:46:52.311Z,1018.89
2017-09-02T01:48:06.464Z,1018.86
2017-09-02T01:49:08.344Z,1018.87
2017-09-02T01:50:10.229Z,1018.84
2017-09-02T01:51:12.108Z,1018.87
2017-09-02T01:52:13.928Z,1018.83
2017-09-02T01:53:15.742Z,1018.88
2017-09-02T01:54:17.632Z,1018.85
2017-09-02T01:55:19.511Z,1018.93
2017-09-02T01:56:21.402Z,1018.92
2017-09-02T01:57:35.554Z,1018.91
2017-09-02T01:58:37.444Z,1018.90
2017-09-02T01:59:39.320Z,1018.88
2017-09-02T02:00:41.203Z,1018.88
2017-09-02T02:01:43.031Z,1018.82
2017-09-02T02:02:44.848Z,1018.78
2017-09-02T02:03:46.736Z,1018.76
2017-09-02T02:04:48.618Z,1018.74
2017-09-02T02:05:50.498Z,1018.71
2017-09-02T02:07:04.653Z,1018.73
2017-09-02T02:08:06.533Z,1018.70
2017-09-02T02:09:08.425Z,1018.67
2017-09-02T02:10:10.321Z,1018.66
2017-09-02T02:11:12.159Z,1018.63
2017-09-02T02:12:13.969Z,1018.59
2017-09-02T02:13:15.847Z,1018.62
2017-09-02T02:14:17.728Z,1018.61
2017-09-02T02:15:19.610Z,1018.63
2017-09-02T02:16:33.764Z,1018.59
2017-09-02T02:17:35.648Z,1018.54
2017-09-02T02:18:37.528Z,1018.58
2017-09-02T02:19:39.412Z,1018.51
2017-09-02T02:20:41.233Z,1018.52
2017-09-02T02:21:43.047Z,1018.54
2017-09-02T02:22:44.927Z,1018.54
2017-09-02T02:23:46.807Z,1018.52
2017-09-02T02:24:48.685Z,1018.56
2017-09-02T02:26:02.890Z,1018.52
2017-09-02T02:27:04.772Z,1018.56
2017-09-02T02:28:06.662Z,1018.51
2017-09-02T02:29:08.535Z,1018.58
2017-09-02T02:30:10.352Z,1018.52
2017-09-02T02:31:12.177Z,1018.51
2017-09-02T02:32:14.068Z,1018.50
2017-09-02T02:33:15.948Z,1018.50
2017-09-02T02:34:17.826Z,1018.45
2017-09-02T02:35:31.982Z,1018.45
2017-09-02T02:36:33.863Z,1018.46
2017-09-02T02:37:35.750Z,1018.45
2017-09-02T02:38:37.629Z,1018.45
2017-09-02T02:39:39.446Z,1018.43
2017-09-02T02:40:41.274Z,1018.41
2017-09-02T02:41:43.154Z,1018.42
2017-09-02T02:42:45.034Z,1018.48
2017-09-02T02:43:46.916Z,1018.40
2017-09-02T02:45:01.082Z,1018.48
2017-09-02T02:46:02.963Z,1018.46
2017-09-02T02:47:04.853Z,1018.48
2017-09-02T02:48:06.728Z,1018.54
2017-09-02T02:49:08.548Z,1018.54
2017-09-02T02:50:10.370Z,1018.47
2017-09-02T02:51:12.249Z,1018.51
2017-09-02T02:52:14.126Z,1018.46
2017-09-02T02:53:16.007Z,1018.48
2017-09-02T02:54:30.160Z,1018.44
2017-09-02T02:55:32.042Z,1018.42
2017-09-02T02:56:33.935Z,1018.47
2017-09-02T02:57:35.817Z,1018.46
2017-09-02T02:58:37.637Z,1018.43
2017-09-02T02:59:39.450Z,1018.45
2017-09-02T03:00:41.329Z,1018.49
2017-09-02T03:01:43.210Z,1018.47
2017-09-02T03:02:45.088Z,1018.52
2017-09-02T03:03:59.250Z,1018.53
2017-09-02T03:05:01.134Z,1018.54
2017-09-02T03:06:03.018Z,1018.53
2017-09-02T03:07:04.900Z,1018.55
2017-09-02T03:08:06.718Z,1018.50
2017-09-02T03:09:08.533Z,1018.52
2017-09-02T03:10:10.424Z,1018.51
2017-09-02T03:11:12.303Z,1018.51
2017-09-02T03:12:14.193Z,1018.45
2017-09-02T03:13:28.346Z,1018.49
2017-09-02T03:14:30.228Z,1018.48
2017-09-02T03:15:32.109Z,1018.47
2017-09-02T03:16:33.994Z,1018.48
2017-09-02T03:17:35.814Z,1018.47
2017-09-02T03:18:37.639Z,1018.48
2017-09-02T03:19:39.528Z,1018.49
2017-09-02T03:20:41.409Z,1018.51
2017-09-02T03:21:43.289Z,1018.49
2017-09-02T03:22:57.442Z,1018.47
2017-09-02T03:23:59.324Z,1018.50
2017-09-02T03:25:01.206Z,1018.48
2017-09-02T03:26:03.099Z,1018.47
2017-09-02T03:27:04.920Z,1018.46
2017-09-02T03:28:06.734Z,1018.49
2017-09-02T03:29:08.623Z,1018.47
2017-09-02T03:30:10.504Z,1018.47
2017-09-02T03:31:12.384Z,1018.43
2017-09-02T03:32:26.536Z,1018.44
2017-09-02T03:33:28.417Z,1018.44
2017-09-02T03:34:30.307Z,1018.39
2017-09-02T03:35:32.191Z,1018.36
2017-09-02T03:36:34.008Z,1018.37
2017-09-02T03:37:35.824Z,1018.41
2017-09-02T03:38:37.713Z,1018.41
2017-09-02T03:39:39.592Z,1018.40
2017-09-02T03:40:41.474Z,1018.43
2017-09-02T03:41:55.627Z,1018.43
2017-09-02T03:42:57.522Z,1018.45
2017-09-02T03:43:59.402Z,1018.48
2017-09-02T03:45:01.283Z,1018.45
2017-09-02T03:46:03.111Z,1018.46
2017-09-02T03:47:04.929Z,1018.46
2017-09-02T03:48:06.810Z,1018.43
2017-09-02T03:49:08.690Z,1018.42
2017-09-02T03:50:10.585Z,1018.41
2017-09-02T03:51:24.728Z,1018.36
2017-09-02T03:52:26.610Z,1018.32
2017-09-02T03:53:28.492Z,1018.35
2017-09-02T03:54:30.374Z,1018.30
2017-09-02T03:55:32.197Z,1018.33
2017-09-02T03:56:34.013Z,1018.34
2017-09-02T03:57:35.892Z,1018.36
2017-09-02T03:58:37.774Z,1018.36
2017-09-02T03:59:39.658Z,1018.39
2017-09-02T04:00:53.815Z,1018.40
2017-09-02T04:01:55.695Z,1018.36
2017-09-02T04:02:57.581Z,1018.37
2017-09-02T04:03:59.463Z,1018.34
2017-09-02T04:05:01.280Z,1018.32
2017-09-02T04:06:03.105Z,1018.31
2017-09-02T04:07:04.978Z,1018.35
2017-09-02T04:08:06.868Z,1018.31
2017-09-02T04:09:08.758Z,1018.28
2017-09-02T04:10:22.907Z,1018.29
2017-09-02T04:11:24.790Z,1018.26
2017-09-02T04:12:26.682Z,1018.28
2017-09-02T04:13:28.565Z,1018.25
2017-09-02T04:14:30.397Z,1018.22
2017-09-02T04:15:32.226Z,1018.21
2017-09-02T04:16:34.106Z,1018.15
2017-09-02T04:17:35.998Z,1018.15
2017-09-02T04:18:37.883Z,1018.13
2017-09-02T04:19:52.059Z,1018.12
2017-09-02T04:20:53.938Z,1018.07
2017-09-02T04:21:55.821Z,1018.08
2017-09-02T04:22:57.706Z,1018.13
2017-09-02T04:23:59.533Z,1018.15
2017-09-02T04:25:01.342Z,1018.18
2017-09-02T04:26:03.233Z,1018.13
2017-09-02T04:27:05.124Z,1018.12
2017-09-02T04:28:06.997Z,1018.13
2017-09-02T04:29:21.155Z,1018.11
2017-09-02T04:30:23.041Z,1018.14
2017-09-02T04:31:24.927Z,1018.14
2017-09-02T04:32:26.813Z,1018.13
2017-09-02T04:33:28.638Z,1018.10
2017-09-02T04:34:30.476Z,1018.12
2017-09-02T04:35:32.338Z,1018.10
2017-09-02T04:36:34.222Z,1018.13
2017-09-02T04:37:36.104Z,1018.14
2017-09-02T04:38:50.272Z,1018.11
2017-09-02T04:39:52.157Z,1018.17
2017-09-02T04:40:54.044Z,1018.11
2017-09-02T04:41:55.930Z,1018.16
2017-09-02T04:42:57.749Z,1018.13
2017-09-02T04:43:59.577Z,1018.13
2017-09-02T04:45:01.470Z,1018.11
2017-09-02T04:46:03.362Z,1018.10
2017-09-02T04:47:05.246Z,1018.10
2017-09-02T04:48:19.408Z,1018.13
2017-09-02T04:49:21.291Z,1018.14
2017-09-02T04:50:23.179Z,1018.11
2017-09-02T04:51:25.057Z,1018.13
2017-09-02T04:52:26.881Z,1018.15
2017-09-02T04:53:28.701Z,1018.15
2017-09-02T04:54:30.592Z,1018.16
2017-09-02T04:55:32.468Z,1018.12
2017-09-02T04:56:34.365Z,1018.16
2017-09-02T04:57:48.510Z,1018.16
2017-09-02T04:58:50.397Z,1018.22
2017-09-02T04:59:52.281Z,1018.28
2017-09-02T05:00:54.176Z,1018.28
2017-09-02T05:01:55.996Z,1018.29
2017-09-02T05:02:57.814Z,1018.31
2017-09-02T05:03:59.706Z,1018.38
2017-09-02T05:05:01.601Z,1018.37
2017-09-02T05:06:03.496Z,1018.37
2017-09-02T05:07:17.654Z,1018.40
2017-09-02T05:08:19.540Z,1018.42
2017-09-02T05:09:21.435Z,1018.43
2017-09-02T05:10:23.325Z,1018.42
2017-09-02T05:11:25.150Z,1018.47
2017-09-02T05:12:26.970Z,1018.47
2017-09-02T05:13:28.855Z,1018.47
2017-09-02T05:14:30.749Z,1018.52
2017-09-02T05:15:32.635Z,1018.52
2017-09-02T05:16:46.793Z,1018.52
2017-09-02T05:17:48.680Z,1018.55
2017-09-02T05:18:50.567Z,1018.56
2017-09-02T05:19:52.457Z,1018.56
2017-09-02T05:20:54.283Z,1018.52
2017-09-02T05:21:56.107Z,1018.53
2017-09-02T05:22:57.989Z,1018.56
2017-09-02T05:23:59.879Z,1018.53
2017-09-02T05:25:01.763Z,1018.57
2017-09-02T05:26:15.975Z,1018.49
2017-09-02T05:27:17.863Z,1018.50
2017-09-02T05:28:19.751Z,1018.53
2017-09-02T05:29:21.646Z,1018.52
2017-09-02T05:30:23.462Z,1018.51
2017-09-02T05:31:25.286Z,1018.54
2017-09-02T05:32:27.169Z,1018.58
2017-09-02T05:33:29.052Z,1018.56
2017-09-02T05:34:30.939Z,1018.58
2017-09-02T05:35:45.103Z,1018.60
2017-09-02T05:36:46.990Z,1018.61
2017-09-02T05:37:48.879Z,1018.59
2017-09-02T05:38:50.766Z,1018.55
2017-09-02T05:39:52.588Z,1018.55
2017-09-02T05:40:54.421Z,1018.50
2017-09-02T05:41:56.306Z,1018.53
2017-09-02T05:42:58.195Z,1018.54
2017-09-02T05:44:00.083Z,1018.51
2017-09-02T05:45:14.241Z,1018.49
2017-09-02T05:46:16.127Z,1018.53
2017-09-02T05:47:18.017Z,1018.48
2017-09-02T05:48:19.901Z,1018.49
2017-09-02T05:49:21.732Z,1018.47
2017-09-02T05:50:23.551Z,1018.49
2017-09-02T05:51:25.435Z,1018.47
2017-09-02T05:52:27.329Z,1018.47
2017-09-02T05:53:29.215Z,1018.47
2017-09-02T05:54:43.385Z,1018.49
2017-09-02T05:55:45.272Z,1018.53
2017-09-02T05:56:47.162Z,1018.56
2017-09-02T05:57:49.054Z,1018.57
2017-09-02T05:58:50.873Z,1018.64
2017-09-02T05:59:52.704Z,1018.62
2017-09-02T06:00:54.601Z,1018.60
2017-09-02T06:01:56.498Z,1018.64
2017-09-02T06:02:58.387Z,1018.66
2017-09-02T06:04:12.546Z,1018.74
2017-09-02T06:05:14.432Z,1018.71
2017-09-02T06:06:16.320Z,1018.69
2017-09-02T06:07:18.207Z,1018.70
2017-09-02T06:08:20.028Z,1018.65
2017-09-02T06:09:21.861Z,1018.70
2017-09-02T06:10:23.748Z,1018.70
2017-09-02T06:11:25.644Z,1018.70
2017-09-02T06:12:27.532Z,1018.66
2017-09-02T06:13:41.702Z,1018.71
2017-09-02T06:14:43.590Z,1018.73
2017-09-02T06:15:45.481Z,1018.78
2017-09-02T06:16:47.371Z,1018.90
2017-09-02T06:17:49.195Z,1018.89
2017-09-02T06:18:51.016Z,1018.98
2017-09-02T06:19:52.903Z,1018.95
2017-09-02T06:20:54.792Z,1018.98
2017-09-02T06:21:56.681Z,1019.00
2017-09-02T06:23:10.839Z,1018.97
2017-09-02T06:24:12.727Z,1018.95
2017-09-02T06:25:14.615Z,1018.95
2017-09-02T06:26:16.512Z,1018.97
2017-09-02T06:27:18.346Z,1018.91
2017-09-02T06:28:20.171Z,1018.89
2017-09-02T06:29:22.068Z,1018.85
2017-09-02T06:30:23.969Z,1018.90
2017-09-02T06:31:25.856Z,1018.93
2017-09-02T06:32:40.032Z,1018.94
2017-09-02T06:33:41.921Z,1018.96
2017-09-02T06:34:43.807Z,1018.91
2017-09-02T06:35:46.200Z,1018.86
2017-09-02T06:36:48.014Z,1018.83
2017-09-02T06:37:49.849Z,1018.80
2017-09-02T06:38:51.742Z,1018.80
2017-09-02T06:39:53.639Z,1018.75
2017-09-02T06:40:55.526Z,1018.71
2017-09-02T06:42:09.685Z,1018.62
2017-09-02T06:43:11.573Z,1018.72
2017-09-02T06:44:13.461Z,1018.65
2017-09-02T06:45:15.351Z,1018.69
2017-09-02T06:46:17.176Z,1018.70
2017-09-02T06:47:19.010Z,1018.65
2017-09-02T06:48:20.898Z,1018.66
2017-09-02T06:49:22.783Z,1018.72
2017-09-02T06:50:24.670Z,1018.70
2017-09-02T06:51:38.841Z,1018.72
2017-09-02T06:52:40.729Z,1018.67
2017-09-02T06:53:42.616Z,1018.72
2017-09-02T06:54:44.506Z,1018.74
2017-09-02T06:55:46.331Z,1018.74
2017-09-02T06:56:48.155Z,1018.78
2017-09-02T06:57:50.040Z,1018.77
2017-09-02T06:58:51.937Z,1018.83
2017-09-02T06:59:53.825Z,1018.83
2017-09-02T07:01:07.985Z,1018.86
2017-09-02T07:02:09.876Z,1018.85
2017-09-02T07:03:11.765Z,1018.84
2017-09-02T07:04:13.653Z,1018.83
2017-09-02T07:05:15.478Z,1018.79
2017-09-02T07:06:17.299Z,1018.81
2017-09-02T07:07:19.187Z,1018.85
2017-09-02T07:08:21.075Z,1018.88
2017-09-02T07:09:22.956Z,1018.88
2017-09-02T07:10:37.130Z,1018.89
2017-09-02T07:11:39.018Z,1018.87
2017-09-02T07:12:40.904Z,1018.88
2017-09-02T07:13:42.797Z,1018.92
2017-09-02T07:14:44.626Z,1018.96
2017-09-02T07:15:46.446Z,1018.92
2017-09-02T07:16:48.294Z,1018.96
2017-09-02T07:17:50.119Z,1018.96
2017-09-02T07:18:51.940Z,1018.92
2017-09-02T07:20:06.103Z,1018.87
2017-09-02T07:21:07.989Z,1018.88
2017-09-02T07:22:09.878Z,1018.86
2017-09-02T07:23:11.763Z,1018.94
2017-09-02T07:24:13.591Z,1018.92
2017-09-02T07:25:15.417Z,1018.93
2017-09-02T07:26:17.308Z,1019.00
2017-09-02T07:27:19.209Z,1019.01
2017-09-02T07:28:21.086Z,1019.12
2017-09-02T07:29:35.246Z,1019.17
2017-09-02T07:30:37.136Z,1019.16
2017-09-02T07:31:39.023Z,1019.07
2017-09-02T07:32:40.913Z,1019.09
2017-09-02T07:33:42.742Z,1019.11
2017-09-02T07:34:44.572Z,1019.21
2017-09-02T07:35:46.456Z,1019.16
2017-09-02T07:36:48.345Z,1019.21
2017-09-02T07:37:50.237Z,1019.26
2017-09-02T07:39:04.396Z,1019.26
2017-09-02T07:40:06.283Z,1019.22
2017-09-02T07:41:08.173Z,1019.27
2017-09-02T07:42:10.064Z,1019.29
2017-09-02T07:43:11.889Z,1019.30
2017-09-02T07:44:13.713Z,1019.29
2017-09-02T07:45:15.596Z,1019.35
2017-09-02T07:46:17.494Z,1019.30
2017-09-02T07:47:19.380Z,1019.28
2017-09-02T07:48:33.544Z,1019.23
2017-09-02T07:49:35.426Z,1019.22
2017-09-02T07:50:37.358Z,1019.28
2017-09-02T07:51:39.323Z,1019.34
2017-09-02T07:52:41.141Z,1019.42
2017-09-02T07:53:42.962Z,1019.47
2017-09-02T07:54:44.882Z,1019.55
2017-09-02T07:55:46.826Z,1019.58
2017-09-02T07:56:48.711Z,1019.47
2017-09-02T07:58:02.874Z,1019.48
2017-09-02T07:59:04.768Z,1019.52
2017-09-02T08:00:06.650Z,1019.59
2017-09-02T08:01:08.541Z,1019.57
2017-09-02T08:02:10.394Z,1019.56
2017-09-02T08:03:12.510Z,1019.55
2017-09-02T08:04:14.361Z,1019.55
2017-09-02T08:05:16.249Z,1019.59
2017-09-02T08:06:18.138Z,1019.62
2017-09-02T08:07:32.308Z,1019.66
2017-09-02T08:08:34.197Z,1019.75
2017-09-02T08:09:36.134Z,1019.75
2017-09-02T08:10:38.006Z,1019.80
2017-09-02T08:11:39.835Z,1019.75
2017-09-02T08:12:41.658Z,1019.65
2017-09-02T08:13:43.506Z,1019.64
2017-09-02T08:14:45.400Z,1019.60
2017-09-02T08:15:47.239Z,1019.57
2017-09-02T08:17:01.715Z,1019.44
2017-09-02T08:18:03.700Z,1019.35
2017-09-02T08:19:05.574Z,1019.37
2017-09-02T08:20:07.463Z,1019.24
2017-09-02T08:21:09.706Z,1019.26
2017-09-02T08:22:11.691Z,1019.23
2017-09-02T08:23:13.561Z,1019.22
2017-09-02T08:24:15.449Z,1019.23
2017-09-02T08:25:17.339Z,1019.15
2017-09-02T08:26:31.506Z,1019.15
2017-09-02T08:27:33.395Z,1019.14
2017-09-02T08:28:35.324Z,1019.16
2017-09-02T08:29:37.209Z,1019.17
2017-09-02T08:30:39.458Z,1019.17
2017-09-02T08:31:41.410Z,1019.22
2017-09-02T08:32:43.343Z,1019.23
2017-09-02T08:33:45.354Z,1019.20
2017-09-02T08:34:47.241Z,1019.21
2017-09-02T08:36:01.404Z,1019.21
2017-09-02T08:37:03.295Z,1019.21
2017-09-02T08:38:05.206Z,1019.24
2017-09-02T08:39:07.077Z,1019.26
2017-09-02T08:40:08.905Z,1019.32
2017-09-02T08:41:10.730Z,1019.36
2017-09-02T08:42:12.664Z,1019.35
2017-09-02T08:43:14.585Z,1019.27
2017-09-02T08:44:16.474Z,1019.27
2017-09-02T08:45:30.674Z,1019.28
2017-09-02T08:46:32.569Z,1019.31
2017-09-02T08:47:34.462Z,1019.21
2017-09-02T08:48:36.355Z,1019.29
2017-09-02T08:49:38.186Z,1019.19
2017-09-02T08:50:40.008Z,1019.17
2017-09-02T08:51:41.899Z,1019.22
2017-09-02T08:52:43.786Z,1019.17
2017-09-02T08:53:45.688Z,1019.12
2017-09-02T08:54:59.841Z,1019.12
2017-09-02T08:56:01.738Z,1019.15
2017-09-02T08:57:03.627Z,1019.14
2017-09-02T08:58:05.557Z,1019.13
2017-09-02T08:59:07.386Z,1019.16
2017-09-02T09:00:09.210Z,1019.16
2017-09-02T09:01:11.098Z,1019.16
2017-09-02T09:02:12.985Z,1019.18
2017-09-02T09:03:14.897Z,1019.18
2017-09-02T09:04:29.085Z,1019.25
2017-09-02T09:05:30.973Z,1019.29
2017-09-02T09:06:32.866Z,1019.39
2017-09-02T09:07:34.754Z,1019.39
2017-09-02T09:08:36.580Z,1019.40
2017-09-02T09:09:38.415Z,1019.41
2017-09-02T09:10:40.304Z,1019.39
2017-09-02T09:11:42.192Z,1019.33
2017-09-02T09:12:44.082Z,1019.24
2017-09-02T09:13:58.244Z,1019.21
2017-09-02T09:15:00.133Z,1019.21
2017-09-02T09:16:02.027Z,1019.21
2017-09-02T09:17:03.911Z,1019.14
2017-09-02T09:18:05.743Z,1019.20
2017-09-02T09:19:07.571Z,1019.19
2017-09-02T09:20:09.452Z,1019.23
2017-09-02T09:21:11.349Z,1019.29
2017-09-02T09:22:13.235Z,1019.33
2017-09-02T09:23:27.399Z,1019.43
2017-09-02T09:24:29.291Z,1019.21
2017-09-02T09:25:31.187Z,1019.21
2017-09-02T09:26:33.080Z,1019.23
2017-09-02T09:27:34.908Z,1019.18
2017-09-02T09:28:36.735Z,1019.20
2017-09-02T09:29:38.624Z,1019.17
2017-09-02T09:30:40.523Z,1019.21
2017-09-02T09:31:42.396Z,1019.19
2017-09-02T09:32:56.595Z,1019.15
2017-09-02T09:33:58.466Z,1019.08
2017-09-02T09:35:00.346Z,1019.00
2017-09-02T09:36:02.235Z,1018.98
2017-09-02T09:37:04.074Z,1019.05
2017-09-02T09:38:05.899Z,1018.98
2017-09-02T09:39:07.804Z,1018.94
2017-09-02T09:40:09.686Z,1018.90
2017-09-02T09:41:11.580Z,1018.87
2017-09-02T09:42:25.794Z,1018.87
2017-09-02T09:43:27.693Z,1018.87
2017-09-02T09:44:29.644Z,1018.90
2017-09-02T09:45:31.530Z,1018.90
2017-09-02T09:46:33.381Z,1018.97
2017-09-02T09:47:35.203Z,1018.90
2017-09-02T09:48:37.089Z,1018.94
2017-09-02T09:49:38.975Z,1018.89
2017-09-02T09:50:40.868Z,1018.89
2017-09-02T09:51:55.053Z,1018.95
2017-09-02T09:52:56.925Z,1018.89
2017-09-02T09:53:58.810Z,1018.95
2017-09-02T09:55:00.700Z,1018.90
2017-09-02T09:56:02.527Z,1018.95
2017-09-02T09:57:04.351Z,1018.90
2017-09-02T09:58:06.268Z,1019.00
2017-09-02T09:59:08.190Z,1018.96
2017-09-02T10:00:10.077Z,1018.97
2017-09-02T10:01:24.255Z,1018.94
2017-09-02T10:02:26.165Z,1019.00
2017-09-02T10:03:28.051Z,1019.01
2017-09-02T10:04:29.936Z,1019.02
2017-09-02T10:05:31.762Z,1018.97
2017-09-02T10:06:33.585Z,1019.00
2017-09-02T10:07:35.489Z,1018.92
2017-09-02T10:08:37.373Z,1018.88
2017-09-02T10:09:39.295Z,1018.87
2017-09-02T10:10:53.486Z,1018.98
2017-09-02T10:11:55.469Z,1019.01
2017-09-02T10:12:57.357Z,1019.08
2017-09-02T10:13:59.244Z,1019.07
2017-09-02T10:15:01.072Z,1019.01
2017-09-02T10:16:02.908Z,1019.04
2017-09-02T10:17:04.796Z,1018.99
2017-09-02T10:18:06.681Z,1019.01
2017-09-02T10:19:08.574Z,1019.02
2017-09-02T10:20:22.744Z,1018.97
2017-09-02T10:21:24.636Z,1019.01
2017-09-02T10:22:26.525Z,1019.06
2017-09-02T10:23:28.422Z,1019.03
2017-09-02T10:24:30.249Z,1019.05
2017-09-02T10:25:32.068Z,1019.09
2017-09-02T10:26:33.955Z,1019.19
2017-09-02T10:27:35.844Z,1019.21
2017-09-02T10:28:37.753Z,1019.20
2017-09-02T10:29:51.919Z,1019.17
2017-09-02T10:30:53.806Z,1019.12
2017-09-02T10:31:55.694Z,1019.14
2017-09-02T10:32:57.578Z,1018.99
2017-09-02T10:33:59.421Z,1018.95
2017-09-02T10:35:01.249Z,1018.88
2017-09-02T10:36:03.138Z,1018.84
2017-09-02T10:37:05.025Z,1018.79
2017-09-02T10:38:06.913Z,1018.76
2017-09-02T10:39:21.087Z,1018.67
2017-09-02T10:40:22.974Z,1018.73
2017-09-02T10:41:24.863Z,1018.71
2017-09-02T10:42:26.757Z,1018.75
2017-09-02T10:43:28.582Z,1018.75
2017-09-02T10:44:30.409Z,1018.86
2017-09-02T10:45:32.295Z,1018.92
2017-09-02T10:46:34.185Z,1018.95
2017-09-02T10:47:36.072Z,1018.98
2017-09-02T10:48:50.248Z,1019.08
2017-09-02T10:49:52.136Z,1019.12
2017-09-02T10:50:54.035Z,1019.13
2017-09-02T10:51:55.923Z,1019.08
2017-09-02T10:52:57.754Z,1019.04
2017-09-02T10:53:59.583Z,1018.97
2017-09-02T10:55:01.478Z,1018.97
2017-09-02T10:56:03.358Z,1018.94
2017-09-02T10:57:05.246Z,1018.95
2017-09-02T10:58:19.402Z,1018.86
2017-09-02T10:59:21.229Z,1018.87
2017-09-02T11:00:23.119Z,1018.89
2017-09-02T11:01:25.007Z,1018.90
2017-09-02T11:02:26.905Z,1018.92
2017-09-02T11:03:28.731Z,1018.78
2017-09-02T11:04:30.570Z,1018.92
2017-09-02T11:05:32.460Z,1018.88
2017-09-02T11:06:34.347Z,1018.90
2017-09-02T11:07:48.572Z,1019.00
2017-09-02T11:08:50.463Z,1019.10
2017-09-02T11:09:52.349Z,1019.05
2017-09-02T11:10:54.235Z,1019.03
2017-09-02T11:11:56.074Z,1019.00
2017-09-02T11:12:57.910Z,1018.93
2017-09-02T11:13:59.798Z,1018.92
2017-09-02T11:15:01.685Z,1018.94
2017-09-02T11:16:03.580Z,1018.82
2017-09-02T11:17:17.741Z,1018.81
2017-09-02T11:18:19.628Z,1018.86
2017-09-02T11:19:21.516Z,1018.97
2017-09-02T11:20:23.410Z,1019.03
2017-09-02T11:21:25.244Z,1019.05
2017-09-02T11:22:27.079Z,1019.00
2017-09-02T11:23:28.987Z,1019.02
2017-09-02T11:24:30.900Z,1019.03
2017-09-02T11:25:32.810Z,1019.06
2017-09-02T11:26:47.004Z,1019.08
2017-09-02T11:27:48.923Z,1019.07
2017-09-02T11:28:50.833Z,1018.97
2017-09-02T11:29:52.729Z,1018.95
2017-09-02T11:30:54.582Z,1018.88
2017-09-02T11:31:56.436Z,1018.97
2017-09-02T11:32:58.347Z,1019.01
2017-09-02T11:34:00.259Z,1019.09
2017-09-02T11:35:02.160Z,1019.10
2017-09-02T11:36:16.341Z,1019.08
2017-09-02T11:37:18.235Z,1018.99
2017-09-02T11:38:20.127Z,1018.90
2017-09-02T11:39:22.030Z,1018.82
2017-09-02T11:40:23.865Z,1018.88
2017-09-02T11:41:25.707Z,1018.82
2017-09-02T11:42:27.610Z,1018.85
2017-09-02T11:43:29.522Z,1018.91
2017-09-02T11:44:31.413Z,1018.90
2017-09-02T11:45:45.583Z,1018.87
2017-09-02T11:46:47.472Z,1018.87
2017-09-02T11:47:49.370Z,1018.93
2017-09-02T11:48:51.283Z,1018.92
2017-09-02T11:49:53.134Z,1018.96
2017-09-02T11:50:54.977Z,1018.98
2017-09-02T11:51:56.912Z,1019.02
2017-09-02T11:52:58.799Z,1019.02
2017-09-02T11:54:00.686Z,1018.94
2017-09-02T11:55:14.854Z,1018.97
2017-09-02T11:56:16.744Z,1019.02
2017-09-02T11:57:18.635Z,1018.97
2017-09-02T11:58:20.526Z,1018.98
2017-09-02T11:59:22.357Z,1018.98
2017-09-02T12:00:24.186Z,1018.96
2017-09-02T12:01:26.074Z,1018.90
2017-09-02T12:02:27.964Z,1018.88
2017-09-02T12:03:29.854Z,1018.92
2017-09-02T12:04:44.033Z,1018.90
2017-09-02T12:05:45.923Z,1018.87
2017-09-02T12:06:47.814Z,1018.83
2017-09-02T12:07:49.702Z,1018.88
2017-09-02T12:08:51.549Z,1018.79
2017-09-02T12:09:53.372Z,1018.78
2017-09-02T12:10:55.271Z,1018.78
2017-09-02T12:11:57.171Z,1018.75
2017-09-02T12:12:59.055Z,1018.73
2017-09-02T12:14:13.219Z,1018.70
2017-09-02T12:15:15.113Z,1018.70
2017-09-02T12:16:17.007Z,1018.70
2017-09-02T12:17:18.898Z,1018.74
2017-09-02T12:18:20.728Z,1018.70
2017-09-02T12:19:22.564Z,1018.75
2017-09-02T12:20:24.450Z,1018.72
2017-09-02T12:21:26.342Z,1018.72
2017-09-02T12:22:28.230Z,1018.71
2017-09-02T12:23:42.398Z,1018.77
2017-09-02T12:24:44.289Z,1018.82
2017-09-02T12:25:46.176Z,1018.74
2017-09-02T12:26:48.070Z,1018.72
2017-09-02T12:27:49.892Z,1018.75
2017-09-02T12:28:51.750Z,1018.77
2017-09-02T12:29:53.875Z,1018.77
2017-09-02T12:30:55.728Z,1018.74
2017-09-02T12:31:57.635Z,1018.82
2017-09-02T12:33:11.808Z,1018.81
2017-09-02T12:34:13.698Z,1018.84
2017-09-02T12:35:15.585Z,1018.85
2017-09-02T12:36:17.472Z,1018.82
2017-09-02T12:37:19.308Z,1018.85
2017-09-02T12:38:21.140Z,1018.78
2017-09-02T12:39:23.022Z,1018.76
2017-09-02T12:40:24.929Z,1018.74
2017-09-02T12:41:26.822Z,1018.75
2017-09-02T12:42:40.990Z,1018.71
2017-09-02T12:43:42.881Z,1018.68
2017-09-02T12:44:44.772Z,1018.63